sensor_id;sensor_type;location;lat;lon;timestamp;temperature;humidity
9666;DHT22;4871;52.004;5.924;2023-08-12T00:51:00;22.4;65.5
9666;DHT22;4871;52.004;5.924;2023-08-12T00:52:00;22.4;65.5
9666;DHT22;4871;52.004;5.924;2023-08-12T00:53:00;22.4;65.5
9666;DHT22;4871;52.004;5.924;2023-08-12T00:54:02;22.4;65.5
9666;DHT22;4871;52.004;5.924;2023-08-12T01:20:01;22.2;65.7
9666;DHT22;4871;52.004;5.924;2023-08-12T01:21:06;22.2;66.0
9666;DHT22;4871;52.004;5.924;2023-08-12T01:22:03;22.2;65.7
9666;DHT22;4871;52.004;5.924;2023-08-12T01:23:08;22.2;66.1
9666;DHT22;4871;52.004;5.924;2023-08-12T01:24:00;22.2;66.1
9666;DHT22;4871;52.004;5.924;2023-08-12T01:25:00;22.2;65.6
9666;DHT22;4871;52.004;5.924;2023-08-12T01:26:00;22.2;65.7
9666;DHT22;4871;52.004;5.924;2023-08-12T01:27:00;22.2;65.8
9666;DHT22;4871;52.004;5.924;2023-08-12T01:28:00;22.2;65.6
9666;DHT22;4871;52.004;5.924;2023-08-12T01:29:00;22.2;65.8
9666;DHT22;4871;52.004;5.924;2023-08-12T01:30:00;22.2;65.9
9666;DHT22;4871;52.004;5.924;2023-08-12T01:31:06;22.1;66.0
9666;DHT22;4871;52.004;5.924;2023-08-12T01:32:17;22.2;65.5
9666;DHT22;4871;52.004;5.924;2023-08-12T01:33:03;22.2;65.7
9666;DHT22;4871;52.004;5.924;2023-08-12T01:34:03;22.1;65.9
9666;DHT22;4871;52.004;5.924;2023-08-12T01:35:04;22.1;66.1
9666;DHT22;4871;52.004;5.924;2023-08-12T01:36:12;22.1;65.9
9666;DHT22;4871;52.004;5.924;2023-08-12T01:37:03;22.1;65.7
9666;DHT22;4871;52.004;5.924;2023-08-12T01:38:02;22.1;65.7
9666;DHT22;4871;52.004;5.924;2023-08-12T01:39:00;22.1;65.9
9666;DHT22;4871;52.004;5.924;2023-08-12T01:40:01;22.1;65.7
9666;DHT22;4871;52.004;5.924;2023-08-12T01:41:00;22.1;65.7
9666;DHT22;4871;52.004;5.924;2023-08-12T01:42:00;22.1;66.0
9666;DHT22;4871;52.004;5.924;2023-08-12T01:43:01;22.1;65.8
9666;DHT22;4871;52.004;5.924;2023-08-12T01:44:00;22.1;65.7
9666;DHT22;4871;52.004;5.924;2023-08-12T01:45:01;22.1;66.2
9666;DHT22;4871;52.004;5.924;2023-08-12T01:46:00;22.1;65.8
9666;DHT22;4871;52.004;5.924;2023-08-12T01:47:01;22.1;66.1
9666;DHT22;4871;52.004;5.924;2023-08-12T01:48:00;22.1;65.8
9666;DHT22;4871;52.004;5.924;2023-08-12T01:49:00;22.0;65.7
9666;DHT22;4871;52.004;5.924;2023-08-12T01:50:00;22.0;65.7
9666;DHT22;4871;52.004;5.924;2023-08-12T01:51:00;22.0;65.6
9666;DHT22;4871;52.004;5.924;2023-08-12T01:52:00;22.0;66.0
9666;DHT22;4871;52.004;5.924;2023-08-12T01:53:00;22.0;65.9
9666;DHT22;4871;52.004;5.924;2023-08-12T01:54:00;22.0;66.3
9666;DHT22;4871;52.004;5.924;2023-08-12T01:55:00;22.0;65.8
9666;DHT22;4871;52.004;5.924;2023-08-12T01:56:00;22.0;66.1
9666;DHT22;4871;52.004;5.924;2023-08-12T01:57:01;22.0;65.9
9666;DHT22;4871;52.004;5.924;2023-08-12T01:58:00;22.0;65.6
9666;DHT22;4871;52.004;5.924;2023-08-12T01:59:00;22.0;66.1
9666;DHT22;4871;52.004;5.924;2023-08-12T02:00:00;22.0;65.8
9666;DHT22;4871;52.004;5.924;2023-08-12T02:01:00;22.0;65.5
9666;DHT22;4871;52.004;5.924;2023-08-12T02:02:00;22.0;66.1
9666;DHT22;4871;52.004;5.924;2023-08-12T02:03:00;22.0;66.3
9666;DHT22;4871;52.004;5.924;2023-08-12T02:04:00;22.0;66.0
9666;DHT22;4871;52.004;5.924;2023-08-12T02:05:00;22.0;65.9
9666;DHT22;4871;52.004;5.924;2023-08-12T02:06:00;22.0;65.6
9666;DHT22;4871;52.004;5.924;2023-08-12T02:07:00;22.0;65.6
9666;DHT22;4871;52.004;5.924;2023-08-12T02:08:00;22.0;65.7
9666;DHT22;4871;52.004;5.924;2023-08-12T02:09:00;22.0;65.8
9666;DHT22;4871;52.004;5.924;2023-08-12T02:10:00;22.0;65.8
9666;DHT22;4871;52.004;5.924;2023-08-12T02:11:00;22.0;65.9
9666;DHT22;4871;52.004;5.924;2023-08-12T02:12:00;22.0;66.3
9666;DHT22;4871;52.004;5.924;2023-08-12T02:13:00;22.0;66.2
9666;DHT22;4871;52.004;5.924;2023-08-12T02:14:00;22.0;65.7
9666;DHT22;4871;52.004;5.924;2023-08-12T02:15:00;22.0;66.0
9666;DHT22;4871;52.004;5.924;2023-08-12T02:16:00;21.9;66.4
9666;DHT22;4871;52.004;5.924;2023-08-12T02:17:00;22.0;66.1
9666;DHT22;4871;52.004;5.924;2023-08-12T02:18:00;21.9;65.7
9666;DHT22;4871;52.004;5.924;2023-08-12T02:19:00;22.0;65.9
9666;DHT22;4871;52.004;5.924;2023-08-12T02:20:00;22.0;65.8
9666;DHT22;4871;52.004;5.924;2023-08-12T02:21:00;22.0;65.8
9666;DHT22;4871;52.004;5.924;2023-08-12T02:22:01;21.9;65.9
9666;DHT22;4871;52.004;5.924;2023-08-12T02:23:00;21.9;65.9
9666;DHT22;4871;52.004;5.924;2023-08-12T02:24:00;21.9;66.0
9666;DHT22;4871;52.004;5.924;2023-08-12T02:25:00;21.9;66.1
9666;DHT22;4871;52.004;5.924;2023-08-12T02:26:01;21.9;66.1
9666;DHT22;4871;52.004;5.924;2023-08-12T02:27:00;21.9;65.5
9666;DHT22;4871;52.004;5.924;2023-08-12T02:28:00;21.9;67.0
9666;DHT22;4871;52.004;5.924;2023-08-12T02:29:00;21.9;66.0
9666;DHT22;4871;52.004;5.924;2023-08-12T02:30:00;21.9;66.6
9666;DHT22;4871;52.004;5.924;2023-08-12T02:31:00;21.9;66.4
9666;DHT22;4871;52.004;5.924;2023-08-12T02:32:00;21.9;66.5
9666;DHT22;4871;52.004;5.924;2023-08-12T02:33:00;21.9;66.4
9666;DHT22;4871;52.004;5.924;2023-08-12T02:34:00;21.9;66.2
9666;DHT22;4871;52.004;5.924;2023-08-12T02:35:00;21.9;66.1
9666;DHT22;4871;52.004;5.924;2023-08-12T02:36:00;21.9;66.8
9666;DHT22;4871;52.004;5.924;2023-08-12T02:37:00;21.9;67.3
9666;DHT22;4871;52.004;5.924;2023-08-12T02:38:00;21.9;66.4
9666;DHT22;4871;52.004;5.924;2023-08-12T02:39:00;21.9;66.1
9666;DHT22;4871;52.004;5.924;2023-08-12T02:40:00;21.9;66.4
9666;DHT22;4871;52.004;5.924;2023-08-12T02:41:00;21.9;65.9
9666;DHT22;4871;52.004;5.924;2023-08-12T02:42:00;21.9;66.8
9666;DHT22;4871;52.004;5.924;2023-08-12T02:43:00;21.9;66.5
9666;DHT22;4871;52.004;5.924;2023-08-12T02:44:00;21.8;66.4
9666;DHT22;4871;52.004;5.924;2023-08-12T02:45:00;21.9;66.1
9666;DHT22;4871;52.004;5.924;2023-08-12T02:46:00;21.9;66.4
9666;DHT22;4871;52.004;5.924;2023-08-12T02:47:00;21.8;66.6
9666;DHT22;4871;52.004;5.924;2023-08-12T02:48:00;21.8;66.6
9666;DHT22;4871;52.004;5.924;2023-08-12T02:49:00;21.9;66.8
9666;DHT22;4871;52.004;5.924;2023-08-12T02:50:00;21.8;67.2
9666;DHT22;4871;52.004;5.924;2023-08-12T02:51:00;21.8;66.6
9666;DHT22;4871;52.004;5.924;2023-08-12T02:52:00;21.9;66.6
9666;DHT22;4871;52.004;5.924;2023-08-12T02:53:00;21.9;66.8
9666;DHT22;4871;52.004;5.924;2023-08-12T02:54:00;21.9;66.7
9666;DHT22;4871;52.004;5.924;2023-08-12T02:55:00;21.9;66.5
9666;DHT22;4871;52.004;5.924;2023-08-12T02:56:00;21.9;66.8
9666;DHT22;4871;52.004;5.924;2023-08-12T02:57:00;21.8;66.3
9666;DHT22;4871;52.004;5.924;2023-08-12T02:58:01;21.8;66.3
9666;DHT22;4871;52.004;5.924;2023-08-12T02:59:00;21.8;66.5
9666;DHT22;4871;52.004;5.924;2023-08-12T03:00:00;21.9;66.5
9666;DHT22;4871;52.004;5.924;2023-08-12T03:01:00;21.8;66.7
9666;DHT22;4871;52.004;5.924;2023-08-12T03:02:00;21.8;67.2
9666;DHT22;4871;52.004;5.924;2023-08-12T03:03:00;21.8;66.6
9666;DHT22;4871;52.004;5.924;2023-08-12T03:04:00;21.8;66.5
9666;DHT22;4871;52.004;5.924;2023-08-12T03:05:00;21.8;66.7
9666;DHT22;4871;52.004;5.924;2023-08-12T03:06:00;21.8;67.3
9666;DHT22;4871;52.004;5.924;2023-08-12T03:07:00;21.8;67.0
9666;DHT22;4871;52.004;5.924;2023-08-12T03:08:01;21.8;66.7
9666;DHT22;4871;52.004;5.924;2023-08-12T03:09:00;21.8;66.6
9666;DHT22;4871;52.004;5.924;2023-08-12T03:10:00;21.8;66.9
9666;DHT22;4871;52.004;5.924;2023-08-12T03:11:01;21.8;66.7
9666;DHT22;4871;52.004;5.924;2023-08-12T03:12:03;21.8;66.5
9666;DHT22;4871;52.004;5.924;2023-08-12T03:13:00;21.8;66.7
9666;DHT22;4871;52.004;5.924;2023-08-12T03:14:00;21.8;66.5
9666;DHT22;4871;52.004;5.924;2023-08-12T03:15:00;21.8;66.7
9666;DHT22;4871;52.004;5.924;2023-08-12T03:16:00;21.8;66.5
9666;DHT22;4871;52.004;5.924;2023-08-12T03:17:00;21.8;66.3
9666;DHT22;4871;52.004;5.924;2023-08-12T03:18:00;21.8;66.5
9666;DHT22;4871;52.004;5.924;2023-08-12T03:19:00;21.8;66.6
9666;DHT22;4871;52.004;5.924;2023-08-12T03:20:00;21.8;67.4
9666;DHT22;4871;52.004;5.924;2023-08-12T03:21:05;21.8;67.0
9666;DHT22;4871;52.004;5.924;2023-08-12T03:22:00;21.8;66.4
9666;DHT22;4871;52.004;5.924;2023-08-12T03:23:00;21.8;66.3
9666;DHT22;4871;52.004;5.924;2023-08-12T03:24:00;21.8;66.9
9666;DHT22;4871;52.004;5.924;2023-08-12T03:25:00;21.8;66.6
9666;DHT22;4871;52.004;5.924;2023-08-12T03:26:00;21.8;66.6
9666;DHT22;4871;52.004;5.924;2023-08-12T03:27:00;21.8;66.5
9666;DHT22;4871;52.004;5.924;2023-08-12T03:28:00;21.8;66.7
9666;DHT22;4871;52.004;5.924;2023-08-12T03:29:00;21.8;66.7
9666;DHT22;4871;52.004;5.924;2023-08-12T03:30:00;21.8;67.6
9666;DHT22;4871;52.004;5.924;2023-08-12T03:31:00;21.8;66.6
9666;DHT22;4871;52.004;5.924;2023-08-12T03:32:00;21.8;66.8
9666;DHT22;4871;52.004;5.924;2023-08-12T03:33:00;21.8;66.5
9666;DHT22;4871;52.004;5.924;2023-08-12T03:34:01;21.8;66.5
9666;DHT22;4871;52.004;5.924;2023-08-12T03:35:00;21.8;66.2
9666;DHT22;4871;52.004;5.924;2023-08-12T03:36:00;21.8;66.8
9666;DHT22;4871;52.004;5.924;2023-08-12T03:37:00;21.8;66.6
9666;DHT22;4871;52.004;5.924;2023-08-12T03:38:00;21.8;66.4
9666;DHT22;4871;52.004;5.924;2023-08-12T03:39:00;21.8;66.4
9666;DHT22;4871;52.004;5.924;2023-08-12T03:40:00;21.8;67.1
9666;DHT22;4871;52.004;5.924;2023-08-12T03:41:00;21.8;67.1
9666;DHT22;4871;52.004;5.924;2023-08-12T03:42:00;21.8;67.1
9666;DHT22;4871;52.004;5.924;2023-08-12T03:43:00;21.8;67.9
9666;DHT22;4871;52.004;5.924;2023-08-12T03:44:00;21.7;66.7
9666;DHT22;4871;52.004;5.924;2023-08-12T03:45:00;21.7;66.8
9666;DHT22;4871;52.004;5.924;2023-08-12T03:46:00;21.7;67.1
9666;DHT22;4871;52.004;5.924;2023-08-12T03:47:00;21.7;67.9
9666;DHT22;4871;52.004;5.924;2023-08-12T03:48:00;21.7;67.4
9666;DHT22;4871;52.004;5.924;2023-08-12T03:49:00;21.7;67.0
9666;DHT22;4871;52.004;5.924;2023-08-12T03:50:00;21.7;67.4
9666;DHT22;4871;52.004;5.924;2023-08-12T03:51:00;21.7;67.0
9666;DHT22;4871;52.004;5.924;2023-08-12T03:52:00;21.7;66.9
9666;DHT22;4871;52.004;5.924;2023-08-12T03:53:00;21.7;67.0
9666;DHT22;4871;52.004;5.924;2023-08-12T03:54:00;21.7;67.9
9666;DHT22;4871;52.004;5.924;2023-08-12T03:55:00;21.7;67.3
9666;DHT22;4871;52.004;5.924;2023-08-12T03:56:00;21.7;66.8
9666;DHT22;4871;52.004;5.924;2023-08-12T03:57:00;21.7;67.3
9666;DHT22;4871;52.004;5.924;2023-08-12T03:58:00;21.7;67.2
9666;DHT22;4871;52.004;5.924;2023-08-12T03:59:00;21.7;67.4
9666;DHT22;4871;52.004;5.924;2023-08-12T04:00:00;21.7;66.9
9666;DHT22;4871;52.004;5.924;2023-08-12T04:01:00;21.7;67.0
9666;DHT22;4871;52.004;5.924;2023-08-12T04:02:00;21.7;67.0
9666;DHT22;4871;52.004;5.924;2023-08-12T04:03:00;21.7;66.9
9666;DHT22;4871;52.004;5.924;2023-08-12T04:04:00;21.7;67.1
9666;DHT22;4871;52.004;5.924;2023-08-12T04:05:00;21.7;66.6
9666;DHT22;4871;52.004;5.924;2023-08-12T04:06:00;21.7;66.9
9666;DHT22;4871;52.004;5.924;2023-08-12T04:07:00;21.7;66.9
9666;DHT22;4871;52.004;5.924;2023-08-12T04:08:00;21.7;66.6
9666;DHT22;4871;52.004;5.924;2023-08-12T04:09:00;21.7;66.9
9666;DHT22;4871;52.004;5.924;2023-08-12T04:10:00;21.7;66.8
9666;DHT22;4871;52.004;5.924;2023-08-12T04:11:00;21.7;67.0
9666;DHT22;4871;52.004;5.924;2023-08-12T04:12:00;21.7;66.8
9666;DHT22;4871;52.004;5.924;2023-08-12T04:13:00;21.7;66.6
9666;DHT22;4871;52.004;5.924;2023-08-12T04:14:00;21.7;66.6
9666;DHT22;4871;52.004;5.924;2023-08-12T04:15:03;21.7;67.0
9666;DHT22;4871;52.004;5.924;2023-08-12T04:16:00;21.7;66.9
9666;DHT22;4871;52.004;5.924;2023-08-12T04:17:00;21.7;66.6
9666;DHT22;4871;52.004;5.924;2023-08-12T04:18:00;21.7;67.1
9666;DHT22;4871;52.004;5.924;2023-08-12T04:19:00;21.6;66.9
9666;DHT22;4871;52.004;5.924;2023-08-12T04:20:00;21.7;66.7
9666;DHT22;4871;52.004;5.924;2023-08-12T04:21:00;21.7;67.0
9666;DHT22;4871;52.004;5.924;2023-08-12T04:22:00;21.7;66.9
9666;DHT22;4871;52.004;5.924;2023-08-12T04:23:00;21.7;66.7
9666;DHT22;4871;52.004;5.924;2023-08-12T04:24:00;21.7;66.7
9666;DHT22;4871;52.004;5.924;2023-08-12T04:25:00;21.7;67.0
9666;DHT22;4871;52.004;5.924;2023-08-12T04:26:00;21.6;66.7
9666;DHT22;4871;52.004;5.924;2023-08-12T04:27:00;21.6;67.2
9666;DHT22;4871;52.004;5.924;2023-08-12T04:28:00;21.6;66.8
9666;DHT22;4871;52.004;5.924;2023-08-12T04:29:00;21.6;66.3
9666;DHT22;4871;52.004;5.924;2023-08-12T04:30:00;21.6;66.7
9666;DHT22;4871;52.004;5.924;2023-08-12T04:31:00;21.6;67.6
9666;DHT22;4871;52.004;5.924;2023-08-12T04:32:00;21.6;67.1
9666;DHT22;4871;52.004;5.924;2023-08-12T04:33:00;21.6;67.0
9666;DHT22;4871;52.004;5.924;2023-08-12T04:34:00;21.6;68.4
9666;DHT22;4871;52.004;5.924;2023-08-12T04:35:00;21.6;67.0
9666;DHT22;4871;52.004;5.924;2023-08-12T04:36:00;21.6;66.6
9666;DHT22;4871;52.004;5.924;2023-08-12T04:37:00;21.6;67.1
9666;DHT22;4871;52.004;5.924;2023-08-12T04:38:00;21.6;67.0
9666;DHT22;4871;52.004;5.924;2023-08-12T04:39:00;21.6;67.0
9666;DHT22;4871;52.004;5.924;2023-08-12T04:40:00;21.6;66.9
9666;DHT22;4871;52.004;5.924;2023-08-12T04:41:00;21.6;66.8
9666;DHT22;4871;52.004;5.924;2023-08-12T04:42:00;21.6;67.0
9666;DHT22;4871;52.004;5.924;2023-08-12T04:43:00;21.6;67.3
9666;DHT22;4871;52.004;5.924;2023-08-12T04:44:00;21.6;67.4
9666;DHT22;4871;52.004;5.924;2023-08-12T04:45:00;21.6;67.3
9666;DHT22;4871;52.004;5.924;2023-08-12T04:46:00;21.6;67.2
9666;DHT22;4871;52.004;5.924;2023-08-12T04:47:00;21.6;66.9
9666;DHT22;4871;52.004;5.924;2023-08-12T04:48:00;21.6;67.2
9666;DHT22;4871;52.004;5.924;2023-08-12T04:49:00;21.6;67.7
9666;DHT22;4871;52.004;5.924;2023-08-12T04:50:00;21.6;67.2
9666;DHT22;4871;52.004;5.924;2023-08-12T04:51:01;21.6;67.5
9666;DHT22;4871;52.004;5.924;2023-08-12T04:52:00;21.6;67.2
9666;DHT22;4871;52.004;5.924;2023-08-12T04:53:00;21.6;67.2
9666;DHT22;4871;52.004;5.924;2023-08-12T04:54:02;21.6;66.9
9666;DHT22;4871;52.004;5.924;2023-08-12T04:55:00;21.6;67.0
9666;DHT22;4871;52.004;5.924;2023-08-12T04:56:00;21.6;67.3
9666;DHT22;4871;52.004;5.924;2023-08-12T04:57:00;21.6;67.0
9666;DHT22;4871;52.004;5.924;2023-08-12T04:58:01;21.6;66.8
9666;DHT22;4871;52.004;5.924;2023-08-12T04:59:00;21.6;67.1
9666;DHT22;4871;52.004;5.924;2023-08-12T05:00:00;21.6;67.3
9666;DHT22;4871;52.004;5.924;2023-08-12T05:01:00;21.6;66.9
9666;DHT22;4871;52.004;5.924;2023-08-12T05:02:00;21.6;67.1
9666;DHT22;4871;52.004;5.924;2023-08-12T05:03:00;21.6;66.6
9666;DHT22;4871;52.004;5.924;2023-08-12T05:04:00;21.6;67.5
9666;DHT22;4871;52.004;5.924;2023-08-12T05:05:01;21.6;66.9
9666;DHT22;4871;52.004;5.924;2023-08-12T05:06:00;21.6;66.9
9666;DHT22;4871;52.004;5.924;2023-08-12T05:07:00;21.6;67.0
9666;DHT22;4871;52.004;5.924;2023-08-12T05:08:00;21.7;67.8
9666;DHT22;4871;52.004;5.924;2023-08-12T05:09:00;21.7;68.1
9666;DHT22;4871;52.004;5.924;2023-08-12T05:10:00;21.7;68.1
9666;DHT22;4871;52.004;5.924;2023-08-12T05:11:00;21.7;67.1
9666;DHT22;4871;52.004;5.924;2023-08-12T05:12:00;21.7;67.4
9666;DHT22;4871;52.004;5.924;2023-08-12T05:13:00;21.7;67.9
9666;DHT22;4871;52.004;5.924;2023-08-12T05:14:00;21.7;67.5
9666;DHT22;4871;52.004;5.924;2023-08-12T05:15:00;21.7;67.0
9666;DHT22;4871;52.004;5.924;2023-08-12T05:16:00;21.7;67.6
9666;DHT22;4871;52.004;5.924;2023-08-12T05:17:00;21.7;67.7
9666;DHT22;4871;52.004;5.924;2023-08-12T05:18:00;21.7;67.5
9666;DHT22;4871;52.004;5.924;2023-08-12T05:19:00;21.7;67.7
9666;DHT22;4871;52.004;5.924;2023-08-12T05:20:00;21.7;68.7
9666;DHT22;4871;52.004;5.924;2023-08-12T05:21:00;21.7;67.7
9666;DHT22;4871;52.004;5.924;2023-08-12T05:22:00;21.7;69.9
9666;DHT22;4871;52.004;5.924;2023-08-12T05:23:00;21.7;67.8
9666;DHT22;4871;52.004;5.924;2023-08-12T05:24:00;21.7;68.2
9666;DHT22;4871;52.004;5.924;2023-08-12T05:25:00;21.7;67.7
9666;DHT22;4871;52.004;5.924;2023-08-12T05:26:00;21.7;68.1
9666;DHT22;4871;52.004;5.924;2023-08-12T05:27:00;21.7;67.9
9666;DHT22;4871;52.004;5.924;2023-08-12T05:28:00;21.7;68.1
9666;DHT22;4871;52.004;5.924;2023-08-12T05:29:00;21.7;68.8
9666;DHT22;4871;52.004;5.924;2023-08-12T05:30:00;21.7;68.2
9666;DHT22;4871;52.004;5.924;2023-08-12T05:31:00;21.7;68.1
9666;DHT22;4871;52.004;5.924;2023-08-12T05:32:00;21.7;67.4
9666;DHT22;4871;52.004;5.924;2023-08-12T05:33:00;21.7;68.2
9666;DHT22;4871;52.004;5.924;2023-08-12T05:34:00;21.7;69.2
9666;DHT22;4871;52.004;5.924;2023-08-12T05:35:00;21.7;68.4
9666;DHT22;4871;52.004;5.924;2023-08-12T05:36:00;21.7;67.4
9666;DHT22;4871;52.004;5.924;2023-08-12T05:37:00;21.7;67.5
9666;DHT22;4871;52.004;5.924;2023-08-12T05:38:00;21.7;67.7
9666;DHT22;4871;52.004;5.924;2023-08-12T05:39:00;21.7;68.4
9666;DHT22;4871;52.004;5.924;2023-08-12T05:40:00;21.7;68.8
9666;DHT22;4871;52.004;5.924;2023-08-12T05:41:00;21.7;68.3
9666;DHT22;4871;52.004;5.924;2023-08-12T05:42:00;21.7;68.6
9666;DHT22;4871;52.004;5.924;2023-08-12T05:43:00;21.7;68.8
9666;DHT22;4871;52.004;5.924;2023-08-12T05:44:00;21.7;68.5
9666;DHT22;4871;52.004;5.924;2023-08-12T05:45:00;21.7;68.4
9666;DHT22;4871;52.004;5.924;2023-08-12T05:46:00;21.7;68.0
9666;DHT22;4871;52.004;5.924;2023-08-12T05:47:00;21.7;69.2
9666;DHT22;4871;52.004;5.924;2023-08-12T05:48:00;21.7;67.9
9666;DHT22;4871;52.004;5.924;2023-08-12T05:49:00;21.7;68.0
9666;DHT22;4871;52.004;5.924;2023-08-12T05:50:00;21.7;68.6
9666;DHT22;4871;52.004;5.924;2023-08-12T05:51:00;21.7;68.0
9666;DHT22;4871;52.004;5.924;2023-08-12T05:52:00;21.7;68.5
9666;DHT22;4871;52.004;5.924;2023-08-12T05:53:00;21.7;68.1
9666;DHT22;4871;52.004;5.924;2023-08-12T05:54:00;21.7;67.9
9666;DHT22;4871;52.004;5.924;2023-08-12T05:55:00;21.7;68.6
9666;DHT22;4871;52.004;5.924;2023-08-12T05:56:00;21.7;68.1
9666;DHT22;4871;52.004;5.924;2023-08-12T05:57:00;21.7;68.0
9666;DHT22;4871;52.004;5.924;2023-08-12T05:58:00;21.7;68.3
9666;DHT22;4871;52.004;5.924;2023-08-12T05:59:00;21.7;68.2
9666;DHT22;4871;52.004;5.924;2023-08-12T06:00:00;21.7;68.2
9666;DHT22;4871;52.004;5.924;2023-08-12T06:01:00;21.7;68.0
9666;DHT22;4871;52.004;5.924;2023-08-12T06:02:00;21.7;68.0
9666;DHT22;4871;52.004;5.924;2023-08-12T06:03:00;21.7;68.3
9666;DHT22;4871;52.004;5.924;2023-08-12T06:04:00;21.6;68.3
9666;DHT22;4871;52.004;5.924;2023-08-12T06:05:00;21.6;68.9
9666;DHT22;4871;52.004;5.924;2023-08-12T06:06:00;21.6;69.0
9666;DHT22;4871;52.004;5.924;2023-08-12T06:07:00;21.6;69.2
9666;DHT22;4871;52.004;5.924;2023-08-12T06:08:00;21.6;68.9
9666;DHT22;4871;52.004;5.924;2023-08-12T06:09:00;21.6;68.7
9666;DHT22;4871;52.004;5.924;2023-08-12T06:10:00;21.6;68.7
9666;DHT22;4871;52.004;5.924;2023-08-12T06:11:00;21.6;68.7
9666;DHT22;4871;52.004;5.924;2023-08-12T06:12:00;21.6;68.0
9666;DHT22;4871;52.004;5.924;2023-08-12T06:13:00;21.7;68.0
9666;DHT22;4871;52.004;5.924;2023-08-12T06:14:00;21.6;69.1
9666;DHT22;4871;52.004;5.924;2023-08-12T06:15:01;21.6;69.1
9666;DHT22;4871;52.004;5.924;2023-08-12T06:16:00;21.6;69.1
9666;DHT22;4871;52.004;5.924;2023-08-12T06:17:00;21.6;68.8
9666;DHT22;4871;52.004;5.924;2023-08-12T06:18:00;21.6;69.5
9666;DHT22;4871;52.004;5.924;2023-08-12T06:19:00;21.6;69.1
9666;DHT22;4871;52.004;5.924;2023-08-12T06:20:00;21.6;69.1
9666;DHT22;4871;52.004;5.924;2023-08-12T06:21:00;21.6;68.6
9666;DHT22;4871;52.004;5.924;2023-08-12T06:22:00;21.6;69.1
9666;DHT22;4871;52.004;5.924;2023-08-12T06:23:00;21.6;68.7
9666;DHT22;4871;52.004;5.924;2023-08-12T06:24:00;21.6;69.9
9666;DHT22;4871;52.004;5.924;2023-08-12T06:25:00;21.5;69.6
9666;DHT22;4871;52.004;5.924;2023-08-12T06:26:00;21.5;69.7
9666;DHT22;4871;52.004;5.924;2023-08-12T06:27:00;21.5;69.9
9666;DHT22;4871;52.004;5.924;2023-08-12T06:28:01;21.5;69.9
9666;DHT22;4871;52.004;5.924;2023-08-12T06:29:00;21.5;70.2
9666;DHT22;4871;52.004;5.924;2023-08-12T06:30:00;21.5;70.1
9666;DHT22;4871;52.004;5.924;2023-08-12T06:31:00;21.5;69.9
9666;DHT22;4871;52.004;5.924;2023-08-12T06:32:00;21.5;70.6
9666;DHT22;4871;52.004;5.924;2023-08-12T06:33:00;21.5;68.8
9666;DHT22;4871;52.004;5.924;2023-08-12T06:34:01;21.5;69.5
9666;DHT22;4871;52.004;5.924;2023-08-12T06:35:00;21.5;69.6
9666;DHT22;4871;52.004;5.924;2023-08-12T06:36:00;21.5;69.7
9666;DHT22;4871;52.004;5.924;2023-08-12T06:37:00;21.5;68.8
9666;DHT22;4871;52.004;5.924;2023-08-12T06:38:00;21.5;69.2
9666;DHT22;4871;52.004;5.924;2023-08-12T06:39:00;21.5;69.9
9666;DHT22;4871;52.004;5.924;2023-08-12T06:40:00;21.5;69.7
9666;DHT22;4871;52.004;5.924;2023-08-12T06:41:00;21.5;69.1
9666;DHT22;4871;52.004;5.924;2023-08-12T06:42:00;21.5;69.9
9666;DHT22;4871;52.004;5.924;2023-08-12T06:43:00;21.5;69.0
9666;DHT22;4871;52.004;5.924;2023-08-12T06:44:01;21.5;69.1
9666;DHT22;4871;52.004;5.924;2023-08-12T06:45:00;21.5;69.4
9666;DHT22;4871;52.004;5.924;2023-08-12T06:46:00;21.4;69.2
9666;DHT22;4871;52.004;5.924;2023-08-12T06:47:00;21.5;69.3
9666;DHT22;4871;52.004;5.924;2023-08-12T06:48:02;21.4;69.5
9666;DHT22;4871;52.004;5.924;2023-08-12T06:49:00;21.4;69.2
9666;DHT22;4871;52.004;5.924;2023-08-12T06:50:00;21.4;69.6
9666;DHT22;4871;52.004;5.924;2023-08-12T06:51:00;21.4;69.2
9666;DHT22;4871;52.004;5.924;2023-08-12T06:52:00;21.4;68.7
9666;DHT22;4871;52.004;5.924;2023-08-12T06:53:00;21.4;69.4
9666;DHT22;4871;52.004;5.924;2023-08-12T06:54:00;21.4;68.9
9666;DHT22;4871;52.004;5.924;2023-08-12T06:55:00;21.4;69.4
9666;DHT22;4871;52.004;5.924;2023-08-12T06:56:00;21.4;69.3
9666;DHT22;4871;52.004;5.924;2023-08-12T06:57:00;21.4;69.1
9666;DHT22;4871;52.004;5.924;2023-08-12T06:58:00;21.4;69.4
9666;DHT22;4871;52.004;5.924;2023-08-12T06:59:00;21.4;69.1
9666;DHT22;4871;52.004;5.924;2023-08-12T07:00:00;21.4;69.5
9666;DHT22;4871;52.004;5.924;2023-08-12T07:01:00;21.4;69.6
9666;DHT22;4871;52.004;5.924;2023-08-12T07:02:00;21.4;69.3
9666;DHT22;4871;52.004;5.924;2023-08-12T07:03:00;21.4;69.1
9666;DHT22;4871;52.004;5.924;2023-08-12T07:04:00;21.4;69.1
9666;DHT22;4871;52.004;5.924;2023-08-12T07:05:00;21.4;69.1
9666;DHT22;4871;52.004;5.924;2023-08-12T07:06:00;21.4;69.4
9666;DHT22;4871;52.004;5.924;2023-08-12T07:07:00;21.4;69.8
9666;DHT22;4871;52.004;5.924;2023-08-12T07:08:00;21.4;69.4
9666;DHT22;4871;52.004;5.924;2023-08-12T07:09:00;21.4;69.2
9666;DHT22;4871;52.004;5.924;2023-08-12T07:10:00;21.4;69.2
9666;DHT22;4871;52.004;5.924;2023-08-12T07:11:00;21.4;69.8
9666;DHT22;4871;52.004;5.924;2023-08-12T07:12:01;21.4;69.4
9666;DHT22;4871;52.004;5.924;2023-08-12T07:13:00;21.4;68.9
9666;DHT22;4871;52.004;5.924;2023-08-12T07:14:00;21.4;68.4
9666;DHT22;4871;52.004;5.924;2023-08-12T07:15:00;21.4;69.6
9666;DHT22;4871;52.004;5.924;2023-08-12T07:16:00;21.4;69.6
9666;DHT22;4871;52.004;5.924;2023-08-12T07:17:00;21.4;69.1
9666;DHT22;4871;52.004;5.924;2023-08-12T07:18:00;21.4;69.1
9666;DHT22;4871;52.004;5.924;2023-08-12T07:19:00;21.4;69.1
9666;DHT22;4871;52.004;5.924;2023-08-12T07:20:00;21.4;69.0
9666;DHT22;4871;52.004;5.924;2023-08-12T07:21:00;21.4;69.1
9666;DHT22;4871;52.004;5.924;2023-08-12T07:22:00;21.4;68.6
9666;DHT22;4871;52.004;5.924;2023-08-12T07:23:00;21.4;69.7
9666;DHT22;4871;52.004;5.924;2023-08-12T07:24:00;21.4;69.2
9666;DHT22;4871;52.004;5.924;2023-08-12T07:25:00;21.4;69.7
9666;DHT22;4871;52.004;5.924;2023-08-12T07:26:00;21.4;69.4
9666;DHT22;4871;52.004;5.924;2023-08-12T07:27:00;21.4;69.1
9666;DHT22;4871;52.004;5.924;2023-08-12T07:28:00;21.4;69.5
9666;DHT22;4871;52.004;5.924;2023-08-12T07:29:00;21.4;69.2
9666;DHT22;4871;52.004;5.924;2023-08-12T07:30:00;21.4;69.3
9666;DHT22;4871;52.004;5.924;2023-08-12T07:31:00;21.4;69.4
9666;DHT22;4871;52.004;5.924;2023-08-12T07:32:00;21.4;68.8
9666;DHT22;4871;52.004;5.924;2023-08-12T07:33:00;21.4;69.2
9666;DHT22;4871;52.004;5.924;2023-08-12T07:34:00;21.4;68.8
9666;DHT22;4871;52.004;5.924;2023-08-12T07:35:00;21.4;68.6
9666;DHT22;4871;52.004;5.924;2023-08-12T07:36:00;21.4;69.0
9666;DHT22;4871;52.004;5.924;2023-08-12T07:37:00;21.5;69.0
9666;DHT22;4871;52.004;5.924;2023-08-12T07:38:00;21.5;69.0
9666;DHT22;4871;52.004;5.924;2023-08-12T07:39:00;21.5;68.7
9666;DHT22;4871;52.004;5.924;2023-08-12T07:40:00;21.4;69.0
9666;DHT22;4871;52.004;5.924;2023-08-12T07:41:00;21.5;69.2
9666;DHT22;4871;52.004;5.924;2023-08-12T07:42:00;21.5;69.0
9666;DHT22;4871;52.004;5.924;2023-08-12T07:43:00;21.4;69.1
9666;DHT22;4871;52.004;5.924;2023-08-12T07:44:00;21.5;68.4
9666;DHT22;4871;52.004;5.924;2023-08-12T07:45:00;21.5;69.2
9666;DHT22;4871;52.004;5.924;2023-08-12T07:46:00;21.5;69.5
9666;DHT22;4871;52.004;5.924;2023-08-12T07:47:00;21.4;69.9
9666;DHT22;4871;52.004;5.924;2023-08-12T07:48:00;21.4;69.1
9666;DHT22;4871;52.004;5.924;2023-08-12T07:49:00;21.4;70.4
9666;DHT22;4871;52.004;5.924;2023-08-12T07:50:00;21.5;70.0
9666;DHT22;4871;52.004;5.924;2023-08-12T07:51:00;21.4;70.2
9666;DHT22;4871;52.004;5.924;2023-08-12T07:52:00;21.4;70.7
9666;DHT22;4871;52.004;5.924;2023-08-12T07:53:00;21.4;71.4
9666;DHT22;4871;52.004;5.924;2023-08-12T07:54:00;21.4;72.4
9666;DHT22;4871;52.004;5.924;2023-08-12T07:55:00;21.4;72.1
9666;DHT22;4871;52.004;5.924;2023-08-12T07:56:00;21.4;70.3
9666;DHT22;4871;52.004;5.924;2023-08-12T07:57:00;21.5;71.2
9666;DHT22;4871;52.004;5.924;2023-08-12T07:58:00;21.4;71.1
9666;DHT22;4871;52.004;5.924;2023-08-12T07:59:00;21.4;70.5
9666;DHT22;4871;52.004;5.924;2023-08-12T08:00:00;21.4;71.1